sensor_id;sensor_type;location;lat;lon;timestamp;pressure;altitude;pressure_sealevel;temperature;humidity
5062;BME280;2351;50.812;12.872;2022-09-09T00:01:56;97555.06;;;13.50;84.49
5062;BME280;2351;50.812;12.872;2022-09-09T00:04:32;97546.06;;;13.43;84.33
5062;BME280;2351;50.812;12.872;2022-09-09T00:07:07;97544.34;;;13.34;84.26
5062;BME280;2351;50.812;12.872;2022-09-09T00:09:46;97546.47;;;13.22;84.35
5062;BME280;2351;50.812;12.872;2022-09-09T00:12:25;97550.06;;;13.13;84.29
5062;BME280;2351;50.812;12.872;2022-09-09T00:15:01;97550.84;;;13.05;84.34
5062;BME280;2351;50.812;12.872;2022-09-09T00:17:36;97537.19;;;13.00;84.17
5062;BME280;2351;50.812;12.872;2022-09-09T00:20:14;97537.81;;;12.93;84.40
5062;BME280;2351;50.812;12.872;2022-09-09T00:22:54;97542.09;;;12.86;84.45
5062;BME280;2351;50.812;12.872;2022-09-09T00:25:33;97533.25;;;12.77;84.51
5062;BME280;2351;50.812;12.872;2022-09-09T00:28:13;97533.03;;;12.71;84.65
5062;BME280;2351;50.812;12.872;2022-09-09T00:30:49;97525.53;;;12.66;84.72
5062;BME280;2351;50.812;12.872;2022-09-09T00:33:23;97520.03;;;12.59;84.84
5062;BME280;2351;50.812;12.872;2022-09-09T00:35:57;97521.31;;;12.55;84.90
5062;BME280;2351;50.812;12.872;2022-09-09T00:38:33;97524.44;;;12.50;84.97
5062;BME280;2351;50.812;12.872;2022-09-09T00:41:11;97528.84;;;12.42;84.86
5062;BME280;2351;50.812;12.872;2022-09-09T00:43:55;97521.81;;;12.32;84.97
5062;BME280;2351;50.812;12.872;2022-09-09T00:49:39;97529.34;;;12.19;85.25
5062;BME280;2351;50.812;12.872;2022-09-09T00:52:25;97527.81;;;12.16;85.43
5062;BME280;2351;50.812;12.872;2022-09-09T00:55:04;97531.59;;;12.14;85.52
5062;BME280;2351;50.812;12.872;2022-09-09T00:57:37;97532.06;;;12.09;85.65
5062;BME280;2351;50.812;12.872;2022-09-09T01:00:20;97534.84;;;12.08;85.76
5062;BME280;2351;50.812;12.872;2022-09-09T01:02:59;97531.53;;;12.05;85.66
5062;BME280;2351;50.812;12.872;2022-09-09T01:05:36;97529.19;;;12.02;85.66
5062;BME280;2351;50.812;12.872;2022-09-09T01:08:15;97531.16;;;12.00;85.93
5062;BME280;2351;50.812;12.872;2022-09-09T01:10:51;97529.50;;;11.99;86.05
5062;BME280;2351;50.812;12.872;2022-09-09T01:13:25;97534.22;;;11.96;86.35
5062;BME280;2351;50.812;12.872;2022-09-09T01:16:02;97543.31;;;11.93;86.30
5062;BME280;2351;50.812;12.872;2022-09-09T01:18:38;97548.78;;;11.92;86.53
5062;BME280;2351;50.812;12.872;2022-09-09T01:21:18;97547.41;;;11.87;86.60
5062;BME280;2351;50.812;12.872;2022-09-09T01:26:52;97545.19;;;11.83;86.80
5062;BME280;2351;50.812;12.872;2022-09-09T01:29:26;97536.56;;;11.81;87.00
5062;BME280;2351;50.812;12.872;2022-09-09T01:31:59;97536.56;;;11.81;86.99
5062;BME280;2351;50.812;12.872;2022-09-09T01:34:34;97526.09;;;11.79;87.24
5062;BME280;2351;50.812;12.872;2022-09-09T01:37:08;97538.53;;;11.79;87.38
5062;BME280;2351;50.812;12.872;2022-09-09T01:39:43;97538.84;;;11.75;87.44
5062;BME280;2351;50.812;12.872;2022-09-09T01:42:17;97531.03;;;11.74;87.68
5062;BME280;2351;50.812;12.872;2022-09-09T01:44:49;97524.34;;;11.70;87.76
5062;BME280;2351;50.812;12.872;2022-09-09T01:47:20;97523.81;;;11.66;87.63
5062;BME280;2351;50.812;12.872;2022-09-09T01:49:52;97520.78;;;11.61;87.69
5062;BME280;2351;50.812;12.872;2022-09-09T01:52:23;97524.41;;;11.60;87.96
5062;BME280;2351;50.812;12.872;2022-09-09T01:54:55;97522.75;;;11.59;88.21
5062;BME280;2351;50.812;12.872;2022-09-09T01:57:33;97527.91;;;11.60;88.37
5062;BME280;2351;50.812;12.872;2022-09-09T02:00:09;97524.41;;;11.60;88.63
5062;BME280;2351;50.812;12.872;2022-09-09T02:02:48;97523.59;;;11.59;88.69
5062;BME280;2351;50.812;12.872;2022-09-09T02:05:34;97522.91;;;11.57;88.69
5062;BME280;2351;50.812;12.872;2022-09-09T02:08:08;97526.69;;;11.55;88.88
5062;BME280;2351;50.812;12.872;2022-09-09T02:10:47;97534.25;;;11.50;89.05
5062;BME280;2351;50.812;12.872;2022-09-09T02:13:24;97524.38;;;11.42;89.00
5062;BME280;2351;50.812;12.872;2022-09-09T02:16:00;97532.91;;;11.36;89.15
5062;BME280;2351;50.812;12.872;2022-09-09T02:18:38;97525.44;;;11.31;89.17
5062;BME280;2351;50.812;12.872;2022-09-09T02:21:13;97523.75;;;11.30;89.48
5062;BME280;2351;50.812;12.872;2022-09-09T02:23:47;97524.88;;;11.27;89.58
5062;BME280;2351;50.812;12.872;2022-09-09T02:26:22;97532.16;;;11.25;89.76
5062;BME280;2351;50.812;12.872;2022-09-09T02:28:57;97523.63;;;11.22;89.72
5062;BME280;2351;50.812;12.872;2022-09-09T02:31:32;97528.25;;;11.20;89.88
5062;BME280;2351;50.812;12.872;2022-09-09T02:34:07;97524.91;;;11.18;89.94
5062;BME280;2351;50.812;12.872;2022-09-09T02:36:42;97529.38;;;11.17;90.31
5062;BME280;2351;50.812;12.872;2022-09-09T02:39:15;97527.56;;;11.18;90.42
5062;BME280;2351;50.812;12.872;2022-09-09T02:41:47;97527.72;;;11.16;90.29
5062;BME280;2351;50.812;12.872;2022-09-09T02:44:20;97526.34;;;11.12;90.40
5062;BME280;2351;50.812;12.872;2022-09-09T02:47:09;97529.13;;;11.10;90.34
5062;BME280;2351;50.812;12.872;2022-09-09T02:49:50;97516.19;;;11.07;90.53
5062;BME280;2351;50.812;12.872;2022-09-09T02:52:27;97522.47;;;11.06;90.67
5062;BME280;2351;50.812;12.872;2022-09-09T02:55:07;97514.66;;;11.05;90.81
5062;BME280;2351;50.812;12.872;2022-09-09T02:57:43;97513.81;;;11.04;91.08
5062;BME280;2351;50.812;12.872;2022-09-09T03:00:24;97520.78;;;11.05;91.07
5062;BME280;2351;50.812;12.872;2022-09-09T03:02:56;97520.09;;;11.03;91.24
5062;BME280;2351;50.812;12.872;2022-09-09T03:05:27;97513.13;;;11.02;91.29
5062;BME280;2351;50.812;12.872;2022-09-09T03:07:59;97518.44;;;11.02;91.38
5062;BME280;2351;50.812;12.872;2022-09-09T03:10:30;97519.28;;;11.03;91.47
5062;BME280;2351;50.812;12.872;2022-09-09T03:13:02;97517.44;;;11.03;91.47
5062;BME280;2351;50.812;12.872;2022-09-09T03:15:36;97525.41;;;11.03;91.67
5062;BME280;2351;50.812;12.872;2022-09-09T03:18:08;97517.44;;;11.03;91.74
5062;BME280;2351;50.812;12.872;2022-09-09T03:20:39;97515.63;;;11.04;92.00
5062;BME280;2351;50.812;12.872;2022-09-09T03:23:12;97518.28;;;11.04;91.83
5062;BME280;2351;50.812;12.872;2022-09-09T03:25:46;97522.59;;;11.05;92.04
5062;BME280;2351;50.812;12.872;2022-09-09T03:28:18;97528.75;;;11.05;92.16
5062;BME280;2351;50.812;12.872;2022-09-09T03:30:52;97523.44;;;11.05;92.42
5062;BME280;2351;50.812;12.872;2022-09-09T03:33:28;97527.75;;;11.06;92.50
5062;BME280;2351;50.812;12.872;2022-09-09T03:36:01;97526.91;;;11.06;92.45
5062;BME280;2351;50.812;12.872;2022-09-09T03:38:33;97533.34;;;11.03;92.53
5062;BME280;2351;50.812;12.872;2022-09-09T03:41:04;97526.38;;;11.02;92.60
5062;BME280;2351;50.812;12.872;2022-09-09T03:43:37;97525.56;;;11.02;92.88
5062;BME280;2351;50.812;12.872;2022-09-09T03:46:11;97526.38;;;11.02;92.91
5062;BME280;2351;50.812;12.872;2022-09-09T03:48:42;97525.41;;;11.03;93.00
5062;BME280;2351;50.812;12.872;2022-09-09T03:51:14;97526.09;;;11.05;93.17
5062;BME280;2351;50.812;12.872;2022-09-09T03:53:46;97526.63;;;11.09;93.15
5062;BME280;2351;50.812;12.872;2022-09-09T03:56:17;97521.88;;;11.12;93.26
5062;BME280;2351;50.812;12.872;2022-09-09T03:58:51;97522.41;;;11.16;93.32
5062;BME280;2351;50.812;12.872;2022-09-09T04:01:24;97526.56;;;11.19;93.64
5062;BME280;2351;50.812;12.872;2022-09-09T04:03:56;97517.38;;;11.23;93.69
5062;BME280;2351;50.812;12.872;2022-09-09T04:06:28;97520.41;;;11.28;93.87
5062;BME280;2351;50.812;12.872;2022-09-09T04:09:00;97514.81;;;11.31;94.09
5062;BME280;2351;50.812;12.872;2022-09-09T04:11:32;97529.44;;;11.35;94.04
5062;BME280;2351;50.812;12.872;2022-09-09T04:14:04;97519.38;;;11.39;94.19
5062;BME280;2351;50.812;12.872;2022-09-09T04:16:37;97513.78;;;11.42;94.25
5062;BME280;2351;50.812;12.872;2022-09-09T04:19:09;97510.97;;;11.43;94.44
5062;BME280;2351;50.812;12.872;2022-09-09T04:21:42;97505.38;;;11.47;94.59
5062;BME280;2351;50.812;12.872;2022-09-09T04:24:14;97502.75;;;11.47;94.37
5062;BME280;2351;50.812;12.872;2022-09-09T04:26:47;97504.56;;;11.46;94.40
5062;BME280;2351;50.812;12.872;2022-09-09T04:29:19;97509.88;;;11.46;94.76
5062;BME280;2351;50.812;12.872;2022-09-09T04:31:52;97512.53;;;11.46;94.80
5062;BME280;2351;50.812;12.872;2022-09-09T04:34:24;97511.66;;;11.45;94.83
5062;BME280;2351;50.812;12.872;2022-09-09T04:36:56;97530.91;;;11.48;95.02
5062;BME280;2351;50.812;12.872;2022-09-09T04:39:28;97522.13;;;11.47;94.83
5062;BME280;2351;50.812;12.872;2022-09-09T04:41:59;97530.22;;;11.45;94.87
5062;BME280;2351;50.812;12.872;2022-09-09T04:44:31;97524.09;;;11.45;95.01
5062;BME280;2351;50.812;12.872;2022-09-09T04:47:04;97524.09;;;11.45;95.17
5062;BME280;2351;50.812;12.872;2022-09-09T04:49:35;97518.94;;;11.43;95.25
5062;BME280;2351;50.812;12.872;2022-09-09T04:52:08;97520.59;;;11.44;95.28
5062;BME280;2351;50.812;12.872;2022-09-09T04:54:40;97524.22;;;11.43;95.39
5062;BME280;2351;50.812;12.872;2022-09-09T04:57:11;97528.53;;;11.44;95.60
5062;BME280;2351;50.812;12.872;2022-09-09T04:59:43;97516.84;;;11.47;95.64
5062;BME280;2351;50.812;12.872;2022-09-09T05:02:16;97519.50;;;11.47;95.73
5062;BME280;2351;50.812;12.872;2022-09-09T05:04:47;97534.53;;;11.47;95.88
5062;BME280;2351;50.812;12.872;2022-09-09T05:07:19;97530.91;;;11.48;95.94
5062;BME280;2351;50.812;12.872;2022-09-09T05:09:51;97530.63;;;11.51;96.20
5062;BME280;2351;50.812;12.872;2022-09-09T05:12:23;97541.06;;;11.52;96.32
5062;BME280;2351;50.812;12.872;2022-09-09T05:14:55;97532.00;;;11.55;96.35
5062;BME280;2351;50.812;12.872;2022-09-09T05:17:28;97530.84;;;11.57;96.32
5062;BME280;2351;50.812;12.872;2022-09-09T05:20:00;97530.69;;;11.59;96.54
5062;BME280;2351;50.812;12.872;2022-09-09T05:22:33;97532.34;;;11.60;96.63
5062;BME280;2351;50.812;12.872;2022-09-09T05:25:05;97531.38;;;11.61;96.50
5062;BME280;2351;50.812;12.872;2022-09-09T05:27:36;97541.00;;;11.62;96.84
5062;BME280;2351;50.812;12.872;2022-09-09T05:30:09;97538.34;;;11.62;96.65
5062;BME280;2351;50.812;12.872;2022-09-09T05:32:42;97543.34;;;11.65;96.75
5062;BME280;2351;50.812;12.872;2022-09-09T05:35:14;97539.03;;;11.64;96.86
5062;BME280;2351;50.812;12.872;2022-09-09T05:37:45;97535.28;;;11.67;97.18
5062;BME280;2351;50.812;12.872;2022-09-09T05:40:18;97544.44;;;11.72;97.20
5062;BME280;2351;50.812;12.872;2022-09-09T05:42:49;97543.00;;;11.78;97.72
5062;BME280;2351;50.812;12.872;2022-09-09T05:45:21;97547.03;;;11.82;97.56
5062;BME280;2351;50.812;12.872;2022-09-09T05:47:54;97541.25;;;11.87;97.78
5062;BME280;2351;50.812;12.872;2022-09-09T05:50:25;97541.81;;;11.90;97.86
5062;BME280;2351;50.812;12.872;2022-09-09T05:52:57;97544.00;;;11.95;98.12
5062;BME280;2351;50.812;12.872;2022-09-09T05:55:29;97536.47;;;12.00;98.16
5062;BME280;2351;50.812;12.872;2022-09-09T05:58:01;97535.84;;;12.07;98.28
5062;BME280;2351;50.812;12.872;2022-09-09T06:00:32;97542.22;;;12.14;98.42
5062;BME280;2351;50.812;12.872;2022-09-09T06:03:05;97545.94;;;12.21;98.71
5062;BME280;2351;50.812;12.872;2022-09-09T06:05:37;97551.97;;;12.31;98.90
5062;BME280;2351;50.812;12.872;2022-09-09T06:08:08;97549.78;;;12.45;99.29
5062;BME280;2351;50.812;12.872;2022-09-09T06:10:40;97557.03;;;12.61;99.45
5062;BME280;2351;50.812;12.872;2022-09-09T06:13:11;97550.19;;;12.76;99.73
5062;BME280;2351;50.812;12.872;2022-09-09T06:15:49;97548.44;;;12.93;100.00
5062;BME280;2351;50.812;12.872;2022-09-09T06:18:22;97554.19;;;13.07;100.00
5062;BME280;2351;50.812;12.872;2022-09-09T06:20:55;97550.41;;;13.18;100.00
5062;BME280;2351;50.812;12.872;2022-09-09T06:23:27;97552.09;;;13.27;100.00
5062;BME280;2351;50.812;12.872;2022-09-09T06:26:04;97554.63;;;13.37;100.00
5062;BME280;2351;50.812;12.872;2022-09-09T06:28:36;97546.75;;;13.45;100.00
5062;BME280;2351;50.812;12.872;2022-09-09T06:31:10;97547.78;;;13.52;100.00
5062;BME280;2351;50.812;12.872;2022-09-09T06:33:43;97547.09;;;13.59;100.00
5062;BME280;2351;50.812;12.872;2022-09-09T06:36:17;97555.13;;;13.67;100.00
5062;BME280;2351;50.812;12.872;2022-09-09T06:38:49;97551.16;;;13.71;100.00
5062;BME280;2351;50.812;12.872;2022-09-09T06:41:22;97556.81;;;13.76;100.00
5062;BME280;2351;50.812;12.872;2022-09-09T06:43:55;97554.66;;;13.80;100.00
5062;BME280;2351;50.812;12.872;2022-09-09T06:46:28;97562.16;;;13.84;100.00
5062;BME280;2351;50.812;12.872;2022-09-09T06:49:02;97552.84;;;13.89;100.00
5062;BME280;2351;50.812;12.872;2022-09-09T06:51:35;97553.22;;;13.94;100.00
5062;BME280;2351;50.812;12.872;2022-09-09T06:54:07;97551.56;;;14.01;100.00
5062;BME280;2351;50.812;12.872;2022-09-09T06:56:41;97549.91;;;14.08;100.00
5062;BME280;2351;50.812;12.872;2022-09-09T06:59:13;97550.06;;;14.15;100.00
5062;BME280;2351;50.812;12.872;2022-09-09T07:01:44;97545.09;;;14.20;100.00
5062;BME280;2351;50.812;12.872;2022-09-09T07:04:18;97547.09;;;14.26;100.00
5062;BME280;2351;50.812;12.872;2022-09-09T07:06:49;97542.94;;;14.32;100.00
5062;BME280;2351;50.812;12.872;2022-09-09T07:09:22;97552.75;;;14.40;100.00
5062;BME280;2351;50.812;12.872;2022-09-09T07:11:54;97552.91;;;14.46;100.00
5062;BME280;2351;50.812;12.872;2022-09-09T07:14:27;97545.09;;;14.53;100.00
5062;BME280;2351;50.812;12.872;2022-09-09T07:16:58;97555.91;;;14.60;100.00
5062;BME280;2351;50.812;12.872;2022-09-09T07:19:31;97555.25;;;14.66;100.00
5062;BME280;2351;50.812;12.872;2022-09-09T07:22:04;97562.75;;;14.71;100.00
5062;BME280;2351;50.812;12.872;2022-09-09T07:24:36;97556.78;;;14.77;100.00
5062;BME280;2351;50.812;12.872;2022-09-09T07:27:08;97556.25;;;14.82;100.00
5062;BME280;2351;50.812;12.872;2022-09-09T07:29:39;97558.41;;;14.86;100.00
5062;BME280;2351;50.812;12.872;2022-09-09T07:32:11;97566.56;;;14.93;100.00
5062;BME280;2351;50.812;12.872;2022-09-09T07:34:44;97562.22;;;15.00;100.00
5062;BME280;2351;50.812;12.872;2022-09-09T07:37:16;97570.22;;;15.09;100.00
5062;BME280;2351;50.812;12.872;2022-09-09T07:39:48;97556.69;;;15.18;100.00
5062;BME280;2351;50.812;12.872;2022-09-09T07:42:21;97562.81;;;15.27;100.00
5062;BME280;2351;50.812;12.872;2022-09-09T07:44:52;97565.63;;;15.34;100.00
5062;BME280;2351;50.812;12.872;2022-09-09T07:47:25;97560.44;;;15.41;100.00
5062;BME280;2351;50.812;12.872;2022-09-09T07:49:58;97568.41;;;15.49;99.96
5062;BME280;2351;50.812;12.872;2022-09-09T07:52:29;97561.88;;;15.51;99.06
5062;BME280;2351;50.812;12.872;2022-09-09T07:55:01;97568.72;;;15.54;98.41
5062;BME280;2351;50.812;12.872;2022-09-09T07:57:34;97578.03;;;15.58;97.74
5062;BME280;2351;50.812;12.872;2022-09-09T08:00:07;97572.13;;;15.71;98.23
5062;BME280;2351;50.812;12.872;2022-09-09T08:02:40;97572.56;;;15.91;98.53
5062;BME280;2351;50.812;12.872;2022-09-09T08:05:13;97571.66;;;16.07;98.56
5062;BME280;2351;50.812;12.872;2022-09-09T08:07:45;97574.22;;;16.24;98.57
5062;BME280;2351;50.812;12.872;2022-09-09T08:10:17;97577.31;;;16.36;98.13
5062;BME280;2351;50.812;12.872;2022-09-09T08:12:48;97563.50;;;16.47;98.02
5062;BME280;2351;50.812;12.872;2022-09-09T08:15:20;97564.94;;;16.58;98.05
5062;BME280;2351;50.812;12.872;2022-09-09T08:17:51;97574.00;;;16.72;97.60
5062;BME280;2351;50.812;12.872;2022-09-09T08:20:24;97569.91;;;16.84;97.29
5062;BME280;2351;50.812;12.872;2022-09-09T08:22:56;97561.09;;;16.99;96.76
5062;BME280;2351;50.812;12.872;2022-09-09T08:25:28;97563.13;;;17.12;96.19
5062;BME280;2351;50.812;12.872;2022-09-09T08:28:00;97569.31;;;17.27;95.49
5062;BME280;2351;50.812;12.872;2022-09-09T08:30:31;97564.44;;;17.31;94.92
5062;BME280;2351;50.812;12.872;2022-09-09T08:33:03;97563.88;;;17.36;93.92
5062;BME280;2351;50.812;12.872;2022-09-09T08:35:36;97567.94;;;17.46;93.19
5062;BME280;2351;50.812;12.872;2022-09-09T08:38:08;97569.22;;;17.51;92.91
5062;BME280;2351;50.812;12.872;2022-09-09T08:40:42;97571.41;;;17.62;92.15
5062;BME280;2351;50.812;12.872;2022-09-09T08:43:20;97566.25;;;17.75;92.10
5062;BME280;2351;50.812;12.872;2022-09-09T08:45:59;97565.00;;;17.93;91.74
5062;BME280;2351;50.812;12.872;2022-09-09T08:48:45;97572.19;;;18.29;93.52
5062;BME280;2351;50.812;12.872;2022-09-09T08:51:25;97574.69;;;18.52;87.83
5062;BME280;2351;50.812;12.872;2022-09-09T08:53:59;97583.66;;;18.45;77.68
5062;BME280;2351;50.812;12.872;2022-09-09T08:56:33;97582.59;;;18.39;75.85
5062;BME280;2351;50.812;12.872;2022-09-09T08:59:05;97572.47;;;18.34;74.74
5062;BME280;2351;50.812;12.872;2022-09-09T09:01:49;97569.09;;;18.47;76.34
5062;BME280;2351;50.812;12.872;2022-09-09T09:04:32;97571.28;;;18.65;75.73
5062;BME280;2351;50.812;12.872;2022-09-09T09:07:18;97573.06;;;18.80;74.64
5062;BME280;2351;50.812;12.872;2022-09-09T09:09:57;97577.25;;;18.89;74.40
5062;BME280;2351;50.812;12.872;2022-09-09T09:12:36;97573.53;;;18.90;73.37
5062;BME280;2351;50.812;12.872;2022-09-09T09:15:14;97571.88;;;18.89;72.90
5062;BME280;2351;50.812;12.872;2022-09-09T09:17:48;97565.66;;;18.82;71.96
5062;BME280;2351;50.812;12.872;2022-09-09T09:20:26;97555.97;;;18.81;70.48
5062;BME280;2351;50.812;12.872;2022-09-09T09:23:04;97559.91;;;18.85;71.75
5062;BME280;2351;50.812;12.872;2022-09-09T09:25:39;97565.81;;;19.02;72.11
5062;BME280;2351;50.812;12.872;2022-09-09T09:28:16;97547.31;;;19.07;70.88
5062;BME280;2351;50.812;12.872;2022-09-09T09:30:51;97569.78;;;19.06;70.47
5062;BME280;2351;50.812;12.872;2022-09-09T09:33:28;97558.63;;;19.03;69.63
5062;BME280;2351;50.812;12.872;2022-09-09T09:36:03;97556.34;;;19.00;69.08
5062;BME280;2351;50.812;12.872;2022-09-09T09:38:37;97564.47;;;18.91;69.03
5062;BME280;2351;50.812;12.872;2022-09-09T09:41:10;97564.88;;;18.88;69.17
5062;BME280;2351;50.812;12.872;2022-09-09T09:43:41;97563.09;;;18.95;69.57
5062;BME280;2351;50.812;12.872;2022-09-09T09:46:20;97560.66;;;19.01;69.74
5062;BME280;2351;50.812;12.872;2022-09-09T09:48:57;97551.00;;;19.06;69.38
5062;BME280;2351;50.812;12.872;2022-09-09T09:51:30;97556.41;;;19.13;69.27
5062;BME280;2351;50.812;12.872;2022-09-09T09:54:13;97559.69;;;19.08;68.43
5062;BME280;2351;50.812;12.872;2022-09-09T09:56:46;97565.25;;;19.07;68.43
5062;BME280;2351;50.812;12.872;2022-09-09T09:59:22;97558.09;;;19.21;68.72
5062;BME280;2351;50.812;12.872;2022-09-09T10:01:54;97550.59;;;19.45;68.84
5062;BME280;2351;50.812;12.872;2022-09-09T10:04:26;97547.63;;;19.68;69.31
5062;BME280;2351;50.812;12.872;2022-09-09T10:06:57;97546.91;;;19.88;69.27
5062;BME280;2351;50.812;12.872;2022-09-09T10:09:31;97543.22;;;20.09;67.66
5062;BME280;2351;50.812;12.872;2022-09-09T10:12:08;97553.78;;;20.24;64.61
5062;BME280;2351;50.812;12.872;2022-09-09T10:14:50;97542.44;;;20.28;62.61
5062;BME280;2351;50.812;12.872;2022-09-09T10:17:32;97548.66;;;20.42;60.53
5062;BME280;2351;50.812;12.872;2022-09-09T10:20:24;97543.09;;;20.51;58.84
5062;BME280;2351;50.812;12.872;2022-09-09T10:23:09;97544.72;;;20.65;59.08
5062;BME280;2351;50.812;12.872;2022-09-09T10:26:00;97547.03;;;20.55;57.44
5062;BME280;2351;50.812;12.872;2022-09-09T10:29:05;97545.97;;;20.62;56.95
5062;BME280;2351;50.812;12.872;2022-09-09T10:31:50;97540.59;;;20.69;55.81
5062;BME280;2351;50.812;12.872;2022-09-09T10:34:52;97537.97;;;20.83;55.17
5062;BME280;2351;50.812;12.872;2022-09-09T10:37:40;97537.34;;;20.81;54.13
5062;BME280;2351;50.812;12.872;2022-09-09T10:40:28;97533.78;;;20.87;54.70
5062;BME280;2351;50.812;12.872;2022-09-09T10:43:13;97537.50;;;20.99;54.57
5062;BME280;2351;50.812;12.872;2022-09-09T10:45:54;97529.22;;;21.07;54.87
5062;BME280;2351;50.812;12.872;2022-09-09T10:48:34;97525.88;;;21.19;54.67
5062;BME280;2351;50.812;12.872;2022-09-09T10:51:20;97529.34;;;21.40;55.32
5062;BME280;2351;50.812;12.872;2022-09-09T10:54:07;97537.38;;;21.53;53.39
5062;BME280;2351;50.812;12.872;2022-09-09T10:56:44;97529.13;;;21.48;52.74
5062;BME280;2351;50.812;12.872;2022-09-09T10:59:23;97527.28;;;21.42;52.85
5062;BME280;2351;50.812;12.872;2022-09-09T11:01:59;97533.72;;;21.20;52.38
5062;BME280;2351;50.812;12.872;2022-09-09T11:04:38;97528.34;;;21.20;52.76
5062;BME280;2351;50.812;12.872;2022-09-09T11:07:18;97530.00;;;21.28;52.68
5062;BME280;2351;50.812;12.872;2022-09-09T11:10:03;97519.81;;;21.44;53.15
5062;BME280;2351;50.812;12.872;2022-09-09T11:12:39;97518.72;;;21.72;53.30
5062;BME280;2351;50.812;12.872;2022-09-09T11:15:20;97526.94;;;21.77;52.34
5062;BME280;2351;50.812;12.872;2022-09-09T11:17:56;97524.44;;;21.82;52.02
5062;BME280;2351;50.812;12.872;2022-09-09T11:20:30;97522.44;;;21.71;51.48
5062;BME280;2351;50.812;12.872;2022-09-09T11:23:04;97524.09;;;21.72;52.16
5062;BME280;2351;50.812;12.872;2022-09-09T11:25:43;97519.06;;;21.82;52.40
5062;BME280;2351;50.812;12.872;2022-09-09T11:28:30;97521.72;;;21.89;52.18
5062;BME280;2351;50.812;12.872;2022-09-09T11:31:15;97520.25;;;21.93;51.90
5062;BME280;2351;50.812;12.872;2022-09-09T11:33:58;97524.97;;;22.04;52.62
5062;BME280;2351;50.812;12.872;2022-09-09T11:36:48;97527.06;;;22.27;52.83
5062;BME280;2351;50.812;12.872;2022-09-09T11:42:29;97520.34;;;22.11;52.47
5062;BME280;2351;50.812;12.872;2022-09-09T11:45:21;97530.00;;;21.87;52.01
5062;BME280;2351;50.812;12.872;2022-09-09T11:47:56;97520.38;;;21.59;52.36
5062;BME280;2351;50.812;12.872;2022-09-09T11:50:31;97519.56;;;21.52;53.86
5062;BME280;2351;50.812;12.872;2022-09-09T11:53:14;97516.25;;;21.57;53.66
5062;BME280;2351;50.812;12.872;2022-09-09T11:56:06;97522.44;;;21.57;53.92
5062;BME280;2351;50.812;12.872;2022-09-09T11:58:42;97516.28;;;21.50;54.51
5062;BME280;2351;50.812;12.872;2022-09-09T12:01:26;97510.41;;;21.73;55.37
5062;BME280;2351;50.812;12.872;2022-09-09T12:04:32;97516.94;;;21.91;55.41
5062;BME280;2351;50.812;12.872;2022-09-09T12:07:22;97511.25;;;22.06;55.27
5062;BME280;2351;50.812;12.872;2022-09-09T12:09:59;97516.13;;;21.90;54.02
5062;BME280;2351;50.812;12.872;2022-09-09T12:12:34;97508.34;;;21.69;54.18
5062;BME280;2351;50.812;12.872;2022-09-09T12:15:21;97509.22;;;21.62;54.34
5062;BME280;2351;50.812;12.872;2022-09-09T12:17:55;97502.09;;;21.81;54.97
5062;BME280;2351;50.812;12.872;2022-09-09T12:20:32;97508.19;;;22.02;54.86
5062;BME280;2351;50.812;12.872;2022-09-09T12:23:14;97502.88;;;22.21;54.46
5062;BME280;2351;50.812;12.872;2022-09-09T12:26:00;97497.13;;;22.10;53.23
5062;BME280;2351;50.812;12.872;2022-09-09T12:28:44;97499.50;;;22.00;53.07
5062;BME280;2351;50.812;12.872;2022-09-09T12:31:22;97484.31;;;22.06;52.69
5062;BME280;2351;50.812;12.872;2022-09-09T12:34:04;97484.34;;;22.31;52.57
5062;BME280;2351;50.812;12.872;2022-09-09T12:36:44;97480.22;;;22.61;52.65
5062;BME280;2351;50.812;12.872;2022-09-09T12:39:19;97473.50;;;22.89;52.12
5062;BME280;2351;50.812;12.872;2022-09-09T12:41:54;97469.63;;;23.03;49.37
5062;BME280;2351;50.812;12.872;2022-09-09T12:44:27;97471.91;;;23.25;49.74
5062;BME280;2351;50.812;12.872;2022-09-09T12:47:00;97476.31;;;23.38;47.92
5062;BME280;2351;50.812;12.872;2022-09-09T12:49:35;97465.00;;;23.48;47.58
5062;BME280;2351;50.812;12.872;2022-09-09T12:52:14;97469.59;;;23.59;46.29
5062;BME280;2351;50.812;12.872;2022-09-09T12:54:48;97467.81;;;23.53;45.08
5062;BME280;2351;50.812;12.872;2022-09-09T12:57:23;97456.81;;;23.36;45.10
5062;BME280;2351;50.812;12.872;2022-09-09T13:00:05;97453.00;;;23.43;45.82
5062;BME280;2351;50.812;12.872;2022-09-09T13:02:46;97467.88;;;23.65;46.14
5062;BME280;2351;50.812;12.872;2022-09-09T13:05:21;97469.22;;;23.74;45.51
5062;BME280;2351;50.812;12.872;2022-09-09T13:08:03;97460.41;;;23.79;45.01
5062;BME280;2351;50.812;12.872;2022-09-09T13:10:39;97462.66;;;23.82;44.96
5062;BME280;2351;50.812;12.872;2022-09-09T13:13:13;97455.56;;;23.99;44.51
5062;BME280;2351;50.812;12.872;2022-09-09T13:15:49;97461.38;;;24.15;45.06
5062;BME280;2351;50.812;12.872;2022-09-09T13:18:24;97459.91;;;24.00;43.46
5062;BME280;2351;50.812;12.872;2022-09-09T13:20:56;97461.97;;;23.86;43.30
5062;BME280;2351;50.812;12.872;2022-09-09T13:23:31;97466.38;;;23.69;42.47
5062;BME280;2351;50.812;12.872;2022-09-09T13:26:06;97470.94;;;23.38;43.06
5062;BME280;2351;50.812;12.872;2022-09-09T13:28:52;97465.13;;;23.15;43.48
5062;BME280;2351;50.812;12.872;2022-09-09T13:31:28;97467.91;;;23.09;44.43
5062;BME280;2351;50.812;12.872;2022-09-09T13:34:11;97475.22;;;23.20;44.65
5062;BME280;2351;50.812;12.872;2022-09-09T13:36:47;97463.88;;;23.37;45.58
5062;BME280;2351;50.812;12.872;2022-09-09T13:39:21;97456.34;;;23.57;45.46
5062;BME280;2351;50.812;12.872;2022-09-09T13:41:53;97459.09;;;23.69;45.45
5062;BME280;2351;50.812;12.872;2022-09-09T13:44:27;97450.34;;;23.86;44.47
5062;BME280;2351;50.812;12.872;2022-09-09T13:47:02;97448.84;;;23.90;44.72
5062;BME280;2351;50.812;12.872;2022-09-09T13:49:34;97456.16;;;24.01;43.90
5062;BME280;2351;50.812;12.872;2022-09-09T13:52:10;97452.06;;;23.99;43.32
5062;BME280;2351;50.812;12.872;2022-09-09T13:54:47;97439.34;;;23.99;43.14
5062;BME280;2351;50.812;12.872;2022-09-09T13:57:21;97438.91;;;24.02;43.83
5062;BME280;2351;50.812;12.872;2022-09-09T13:59:54;97437.25;;;24.01;42.91
5062;BME280;2351;50.812;12.872;2022-09-09T14:02:26;97440.13;;;23.88;41.74
5062;BME280;2351;50.812;12.872;2022-09-09T14:04:58;97444.09;;;23.85;42.16